Aérodrome :
LOGIN :

S'inscrire | Disclaimer

   EN    FR    IT 

 










Légende :    VFR   VFR Marginal   IFR   IFR Intensif   IFR Très Intensif
Visi : 
Plafond : 
>= 8 km
>= 3000ft
5 à 8 km
1000 à 3000 ft
1500m à 5 km
500 à 1000 ft
800 à 1500m
200 à 500 ft
< 800m
< 200 ft
Symboles :   Orages  Brouillard  Fortes neiges  Fortes précipitations  Vent > 20 kt
SIGMETs :   Divers  Orages  Givrage  Turbulence  Onde Orograph.  Cendres Volcan.







- Altitude de l'aérodrome : 7 ft
- Code IATA : XHE
- Voir les cartes d'approche


LFTH - Hyeres

DERNIER METAR :
  • 191030Z AUTO 08018KT 060V120 9999 FEW018 SCT160 22/16 Q1015 TEMPO 08018G28KT

METARs EXPIRÉS :
  • 191000Z AUTO 08018KT CAVOK 21/16 Q1015 TEMPO 08018G28KT
  • 190930Z AUTO 09018KT CAVOK 22/16 Q1016 TEMPO 08018G28KT
  • 190900Z AUTO 09017KT 060V120 9999 FEW020 21/16 Q1015 TEMPO 08018G28KT
  • 190830Z AUTO 08015KT 060V130 9999 FEW018 SCT025 21/16 Q1015 TEMPO 08018G28KT
  • 190800Z AUTO 08014KT 9999 BKN019 BKN032 20/16 Q1015 TEMPO 10019G33KT

TAF TAF LFTH
Valide du 19 à 09h jusqu'au 20 à 09h UTC


190800Z 1909/2009 08015KT 9999 BKN020 BKN032
TEMPO 1909/1920 08018G28KT
Pas de NOTAMs connus pour ce terrain.
3 SIGMETs publiés pour la FIR Marseille (LFMM) :
 
Annulation du SIGMET 7 
LFMM SIGMET 9 VALID 191025/191200 LFPW
LFMM MARSEILLE FIR/UIR CNL SIGMET 7 191000/191200=
Orages noyés dans la masse
LFMM SIGMET 8 VALID 191025/191200 LFPW
LFMM MARSEILLE FIR/UIR EMBD TS OBS WI N3900 E00600 - N3900 E00430 - N4200 E00430 - N4215 E00245 - N4345 E00245 - N4315 E00445 - N4045 E00600 TOP FL360 STNR NC=
SIGMET 7  ANNULÉ :
Orages noyés dans la masse
LFMM SIGMET 7 VALID 191000/191200 LFPW
LFMM MARSEILLE FIR/UIR EMBD TS OBS WI N3900 E00600 - N3900 E00430 - N4200 E00430 - N4215 E00315 - N4230 E00315 - N4215 E00445 - N4045 E00600 TOP FL360 STNR NC=



MET'MAP, la Météo Aéronautique d'un coup d'oeil ! - Copyright ORBIFLY Décembre 2007 - Disclaimer

ORBIFLY MET'MAP TEAM :

Programmation & Développement : Alexandra Zaïnal
Conception & Développement : Baudouin d'Aumeries
Co-Programmation & Développement : Marc-Olivier Méhu
Soutien technique & logistique : Manuel Goepfert

Contact : metmap@orbifly.com




SOURCES & CREDITS :

   NOAA